createdAt,value
2019-04-28T00:00:45.482Z,84.60
2019-04-28T00:03:13.888Z,84.60
2019-04-28T00:05:42.289Z,84.60
2019-04-28T00:08:10.932Z,84.70
2019-04-28T00:10:39.462Z,84.80
2019-04-28T00:13:08.032Z,84.70
2019-04-28T00:15:36.769Z,84.40
2019-04-28T00:18:05.253Z,84.40
2019-04-28T00:20:52.195Z,84.40
2019-04-28T00:23:22.239Z,84.20
2019-04-28T00:28:26.081Z,84.20
2019-04-28T00:30:54.481Z,84.20
2019-04-28T00:33:22.886Z,84.20
2019-04-28T00:38:21.588Z,84.10
2019-04-28T00:40:51.015Z,83.90
2019-04-28T00:43:21.795Z,84.00
2019-04-28T00:45:51.297Z,84.10
2019-04-28T00:50:49.455Z,84.20
2019-04-28T00:53:17.859Z,83.90
2019-04-28T00:55:46.253Z,84.30
2019-04-28T01:00:44.464Z,84.40
2019-04-28T01:05:41.214Z,84.60
2019-04-28T01:08:10.978Z,84.70
2019-04-28T01:10:41.021Z,84.80
2019-04-28T01:13:11.599Z,84.40
2019-04-28T01:15:50.582Z,84.50
2019-04-28T01:18:23.657Z,84.50
2019-04-28T01:23:20.374Z,84.60
2019-04-28T01:25:50.069Z,84.20
2019-04-28T01:28:19.627Z,84.30
2019-04-28T01:30:50.336Z,84.30
2019-04-28T01:33:20.644Z,84.30
2019-04-28T01:35:49.420Z,84.30
2019-04-28T01:38:18.024Z,84.30
2019-04-28T01:40:46.897Z,84.30
2019-04-28T01:45:43.370Z,84.00
2019-04-28T01:48:11.768Z,84.30
2019-04-28T01:50:40.168Z,84.30
2019-04-28T01:55:39.549Z,83.70
2019-04-28T01:58:09.593Z,83.70
2019-04-28T02:00:40.430Z,83.80
2019-04-28T02:03:10.381Z,83.70
2019-04-28T02:05:40.551Z,83.90
2019-04-28T02:08:10.192Z,83.50
2019-04-28T02:10:40.167Z,83.80
2019-04-28T02:15:40.046Z,84.00
2019-04-28T02:18:09.960Z,83.90
2019-04-28T02:20:40.000Z,83.70
2019-04-28T02:23:12.841Z,83.90
2019-04-28T02:25:41.226Z,84.00
2019-04-28T02:28:11.745Z,84.00
2019-04-28T02:30:45.489Z,84.00
2019-04-28T02:35:41.800Z,83.70
2019-04-28T02:38:11.479Z,83.90
2019-04-28T02:40:40.708Z,84.00
2019-04-28T02:43:11.445Z,84.00
2019-04-28T02:45:41.227Z,83.80
2019-04-28T02:48:11.589Z,84.00
2019-04-28T02:50:41.648Z,84.00
2019-04-28T02:53:14.616Z,84.00
2019-04-28T02:55:43.026Z,83.90
2019-04-28T02:58:13.370Z,84.00
2019-04-28T03:01:00.392Z,84.00
2019-04-28T03:05:41.247Z,83.80
2019-04-28T03:08:11.118Z,83.40
2019-04-28T03:10:40.995Z,83.50
2019-04-28T03:13:10.824Z,83.40
2019-04-28T03:15:41.390Z,83.30
2019-04-28T03:18:11.465Z,83.20
2019-04-28T03:20:41.782Z,83.20
2019-04-28T03:23:12.394Z,83.20
2019-04-28T03:25:42.368Z,83.10
2019-04-28T03:28:12.414Z,83.30
2019-04-28T03:30:45.382Z,83.40
2019-04-28T03:33:23.841Z,83.20
2019-04-28T03:35:53.067Z,83.40
2019-04-28T03:38:21.227Z,83.00
2019-04-28T03:40:51.274Z,83.10
2019-04-28T03:43:21.183Z,82.90
2019-04-28T03:45:56.334Z,82.90
2019-04-28T03:48:24.721Z,82.90
2019-04-28T03:50:53.144Z,82.80
2019-04-28T03:53:21.597Z,83.00
2019-04-28T03:55:51.339Z,82.90
2019-04-28T03:58:23.640Z,83.00
2019-04-28T04:00:50.806Z,83.00
2019-04-28T04:03:20.930Z,83.20
2019-04-28T04:05:50.831Z,82.80
2019-04-28T04:10:54.108Z,82.90
2019-04-28T04:13:33.250Z,82.70
2019-04-28T04:16:03.338Z,82.80
2019-04-28T04:18:53.775Z,83.10
2019-04-28T04:21:22.599Z,83.20
2019-04-28T04:23:51.148Z,82.90
2019-04-28T04:26:21.256Z,82.90
2019-04-28T04:28:51.496Z,82.90
2019-04-28T04:31:20.200Z,82.90
2019-04-28T04:33:50.635Z,82.70
2019-04-28T04:36:20.825Z,82.50
2019-04-28T04:38:51.245Z,82.30
2019-04-28T04:41:20.209Z,82.00
2019-04-28T04:43:51.057Z,82.30
2019-04-28T04:46:21.911Z,82.30
2019-04-28T04:48:50.919Z,82.10
2019-04-28T04:51:21.229Z,82.60
2019-04-28T04:56:20.968Z,82.40
2019-04-28T04:58:50.610Z,82.40
2019-04-28T05:01:23.558Z,82.40
2019-04-28T05:03:56.280Z,82.00
2019-04-28T05:06:39.758Z,81.90
2019-04-28T05:09:10.338Z,82.00
2019-04-28T05:11:40.148Z,81.90
2019-04-28T05:14:11.504Z,81.60
2019-04-28T05:16:39.848Z,81.50
2019-04-28T05:19:10.188Z,81.50
2019-04-28T05:21:40.145Z,81.50
2019-04-28T05:24:15.767Z,81.50
2019-04-28T05:26:47.685Z,81.30
2019-04-28T05:29:15.257Z,81.10
2019-04-28T05:31:43.648Z,81.10
2019-04-28T05:34:12.072Z,80.90
2019-04-28T05:36:44.416Z,80.90
2019-04-28T05:39:10.659Z,80.80
2019-04-28T05:41:40.013Z,80.80
2019-04-28T05:44:10.082Z,80.90
2019-04-28T05:46:40.187Z,81.00
2019-04-28T05:49:16.224Z,81.00
2019-04-28T05:51:46.252Z,80.90
2019-04-28T05:57:02.605Z,80.50
2019-04-28T05:59:41.897Z,80.40
2019-04-28T06:04:40.995Z,80.30
2019-04-28T06:07:16.757Z,79.80
2019-04-28T06:09:46.800Z,79.20
2019-04-28T06:12:16.770Z,78.60
2019-04-28T06:14:45.181Z,78.10
2019-04-28T06:17:13.580Z,76.80
2019-04-28T06:19:42.063Z,75.80
2019-04-28T06:22:10.468Z,74.00
2019-04-28T06:24:38.877Z,73.10
2019-04-28T06:27:07.277Z,73.20
2019-04-28T06:29:35.684Z,74.50
2019-04-28T06:34:32.223Z,73.00
2019-04-28T06:37:00.633Z,72.10
2019-04-28T06:39:29.049Z,71.60
2019-04-28T06:41:57.523Z,71.30
2019-04-28T06:44:25.927Z,70.30
2019-04-28T06:46:54.326Z,69.80
2019-04-28T06:49:22.732Z,69.60
2019-04-28T06:51:51.144Z,69.10
2019-04-28T06:54:19.562Z,69.50
2019-04-28T06:56:47.961Z,69.80
2019-04-28T06:59:16.369Z,70.30
2019-04-28T07:01:44.780Z,71.10
2019-04-28T07:04:13.189Z,71.70
2019-04-28T07:06:41.592Z,71.60
2019-04-28T07:11:38.215Z,71.50
2019-04-28T07:14:06.630Z,70.90
2019-04-28T07:19:03.118Z,69.20
2019-04-28T07:21:33.151Z,68.50
2019-04-28T07:24:01.558Z,68.80
2019-04-28T07:26:29.952Z,69.50
2019-04-28T07:28:58.479Z,69.70
2019-04-28T07:31:26.885Z,70.30
2019-04-28T07:33:55.280Z,71.20
2019-04-28T07:38:51.753Z,72.50
2019-04-28T07:41:20.167Z,72.70
2019-04-28T07:43:48.632Z,70.50
2019-04-28T07:46:17.057Z,68.00
2019-04-28T07:48:45.482Z,63.70
2019-04-28T07:51:13.885Z,63.00
2019-04-28T07:53:49.916Z,63.20
2019-04-28T07:58:46.442Z,64.50
2019-04-28T08:01:14.894Z,62.90
2019-04-28T08:03:49.664Z,61.70
2019-04-28T08:06:13.450Z,60.80
2019-04-28T08:08:41.918Z,60.90
2019-04-28T08:13:38.393Z,59.00
2019-04-28T08:16:26.218Z,59.10
2019-04-28T08:18:54.625Z,59.50
2019-04-28T08:23:51.120Z,60.30
2019-04-28T08:26:19.608Z,61.20
2019-04-28T08:28:48.006Z,62.70
2019-04-28T08:34:01.728Z,63.30
2019-04-28T08:36:20.565Z,63.90
2019-04-28T08:38:48.983Z,63.10
2019-04-28T08:41:17.465Z,63.70
2019-04-28T08:46:14.110Z,63.40
2019-04-28T08:48:42.515Z,63.20
2019-04-28T08:51:10.943Z,63.50
2019-04-28T08:56:07.505Z,62.60
2019-04-28T08:58:35.897Z,63.30
2019-04-28T09:01:04.383Z,62.90
2019-04-28T09:03:32.782Z,61.60
2019-04-28T09:06:01.514Z,61.20
2019-04-28T09:10:58.105Z,60.60
2019-04-28T09:13:26.505Z,60.50
2019-04-28T09:18:23.027Z,59.80
2019-04-28T09:20:51.432Z,59.10
2019-04-28T09:23:19.838Z,59.90
2019-04-28T09:25:48.252Z,61.40
2019-04-28T09:30:44.840Z,63.50
2019-04-28T09:33:13.420Z,63.70
2019-04-28T09:35:41.891Z,64.30
2019-04-28T09:43:08.109Z,64.90
2019-04-28T09:45:38.174Z,65.70
2019-04-28T09:48:06.565Z,65.60
2019-04-28T09:58:01.297Z,64.40
2019-04-28T10:00:49.096Z,64.60
2019-04-28T10:08:14.037Z,63.10
2019-04-28T10:10:42.456Z,62.60
2019-04-28T10:15:39.005Z,60.00
2019-04-28T10:23:03.647Z,56.10
2019-04-28T10:25:32.571Z,55.50
2019-04-28T10:28:01.070Z,56.40
2019-04-28T10:30:29.478Z,57.40
2019-04-28T10:32:57.893Z,58.60
2019-04-28T10:37:54.411Z,60.90
2019-04-28T10:55:19.090Z,59.10
2019-04-28T10:57:47.544Z,58.70
2019-04-28T11:10:22.422Z,59.40
2019-04-28T11:20:16.895Z,60.80
2019-04-28T11:25:13.465Z,61.30
2019-04-28T11:27:41.886Z,61.30
2019-04-28T11:30:11.244Z,61.40
2019-04-28T11:40:09.837Z,63.30
2019-04-28T11:45:26.969Z,63.10
2019-04-28T11:47:55.478Z,63.90
2019-04-28T11:50:23.872Z,63.50
2019-04-28T11:52:52.284Z,63.90
2019-04-28T11:55:20.760Z,63.50
2019-04-28T11:57:49.249Z,64.10
2019-04-28T12:00:31.906Z,64.20
2019-04-28T12:03:00.393Z,64.40
2019-04-28T12:10:29.964Z,65.40
2019-04-28T12:15:49.157Z,65.50
2019-04-28T12:21:16.619Z,65.50
2019-04-28T12:23:45.121Z,66.00
2019-04-28T12:26:13.534Z,66.60
2019-04-28T12:28:41.951Z,66.00
2019-04-28T12:31:10.360Z,66.10
2019-04-28T12:33:38.766Z,66.10
2019-04-28T12:38:36.763Z,64.90
2019-04-28T12:41:05.163Z,64.70
2019-04-28T12:43:33.713Z,63.80
2019-04-28T12:46:02.112Z,63.20
2019-04-28T12:48:32.680Z,61.70
2019-04-28T12:51:00.665Z,62.10
2019-04-28T12:55:57.163Z,61.90
2019-04-28T12:58:25.573Z,62.30
2019-04-28T13:01:13.994Z,62.10
2019-04-28T13:03:44.037Z,63.20
2019-04-28T13:08:47.981Z,63.80
2019-04-28T13:11:16.376Z,63.80
2019-04-28T13:16:14.610Z,64.40
2019-04-28T13:18:43.170Z,64.40
2019-04-28T13:21:11.572Z,64.70
2019-04-28T13:23:39.976Z,65.60
2019-04-28T13:26:08.389Z,66.70
2019-04-28T13:31:24.349Z,68.50
2019-04-28T13:33:56.243Z,69.90
2019-04-28T13:36:22.953Z,70.10
2019-04-28T13:38:51.399Z,71.60
2019-04-28T13:43:47.984Z,70.30
2019-04-28T13:46:16.389Z,70.40
2019-04-28T13:51:17.674Z,67.80
2019-04-28T13:53:46.160Z,67.50
2019-04-28T13:58:43.217Z,67.60
2019-04-28T14:03:51.658Z,66.50
2019-04-28T14:08:58.272Z,66.50
2019-04-28T14:11:26.729Z,66.60
2019-04-28T14:13:55.128Z,66.50
2019-04-28T14:16:23.572Z,65.90
2019-04-28T14:18:51.982Z,65.30
2019-04-28T14:23:48.639Z,65.90
2019-04-28T14:31:13.486Z,64.90
2019-04-28T14:33:41.933Z,64.80
2019-04-28T14:36:10.350Z,64.40
2019-04-28T14:41:06.840Z,64.50
2019-04-28T14:43:35.249Z,64.30
2019-04-28T14:46:03.670Z,64.40
2019-04-28T14:48:32.072Z,64.50
2019-04-28T14:53:29.037Z,64.70
2019-04-28T14:55:57.443Z,64.50
2019-04-28T14:58:25.923Z,64.50
2019-04-28T15:01:11.006Z,64.40
2019-04-28T15:03:41.082Z,64.50
2019-04-28T15:08:43.942Z,64.40
2019-04-28T15:11:28.980Z,64.50
2019-04-28T15:13:57.910Z,64.80
2019-04-28T15:16:26.350Z,64.60
2019-04-28T15:18:54.816Z,64.70
2019-04-28T15:21:23.262Z,64.30
2019-04-28T15:23:51.672Z,64.10
2019-04-28T15:31:16.345Z,63.80
2019-04-28T15:36:12.904Z,63.90
2019-04-28T15:38:41.304Z,64.10
2019-04-28T15:41:20.865Z,64.30
2019-04-28T15:43:41.436Z,64.70
2019-04-28T15:48:37.942Z,64.70
2019-04-28T15:51:06.476Z,64.90
2019-04-28T15:53:36.541Z,65.30
2019-04-28T15:56:18.852Z,65.60
2019-04-28T16:01:15.719Z,65.80
2019-04-28T16:03:44.133Z,65.80
2019-04-28T16:08:40.637Z,66.10
2019-04-28T16:13:37.281Z,66.20
2019-04-28T16:16:05.684Z,66.20
2019-04-28T16:21:02.217Z,66.50
2019-04-28T16:25:58.734Z,65.70
2019-04-28T16:28:27.153Z,65.80
2019-04-28T16:30:55.549Z,66.00
2019-04-28T16:35:52.040Z,66.30
2019-04-28T16:38:20.469Z,66.30
2019-04-28T16:40:48.873Z,66.10
2019-04-28T16:45:45.384Z,66.50
2019-04-28T16:48:13.865Z,66.60
2019-04-28T16:50:42.262Z,66.60
2019-04-28T16:53:11.532Z,66.80
2019-04-28T16:55:41.603Z,66.90
2019-04-28T16:58:28.071Z,67.10
2019-04-28T17:00:58.098Z,67.10
2019-04-28T17:03:28.172Z,67.10
2019-04-28T17:05:56.635Z,67.30
2019-04-28T17:08:25.041Z,67.50
2019-04-28T17:10:53.439Z,67.50
2019-04-28T17:13:21.887Z,67.40
2019-04-28T17:15:50.357Z,67.50
2019-04-28T17:20:46.852Z,67.70
2019-04-28T17:25:43.331Z,67.80
2019-04-28T17:28:12.018Z,68.50
2019-04-28T17:30:40.422Z,69.00
2019-04-28T17:33:08.847Z,69.70
2019-04-28T17:35:37.333Z,70.00
2019-04-28T17:38:07.007Z,70.10
2019-04-28T17:40:36.461Z,70.30
2019-04-28T17:43:05.012Z,70.50
2019-04-28T17:45:33.408Z,70.90
2019-04-28T17:48:09.068Z,71.20
2019-04-28T17:50:37.462Z,71.50
2019-04-28T17:53:06.038Z,71.60
2019-04-28T17:55:34.428Z,71.80
2019-04-28T17:58:02.850Z,72.00
2019-04-28T18:00:35.349Z,72.30
2019-04-28T18:03:05.397Z,72.70
2019-04-28T18:05:40.920Z,72.70
2019-04-28T18:08:20.539Z,73.00
2019-04-28T18:10:39.830Z,73.20
2019-04-28T18:13:08.311Z,73.80
2019-04-28T18:15:38.350Z,74.00
2019-04-28T18:18:16.965Z,73.90
2019-04-28T18:20:45.352Z,74.20
2019-04-28T18:25:41.899Z,74.70
2019-04-28T18:30:52.250Z,74.70
2019-04-28T18:33:28.194Z,74.90
2019-04-28T18:35:58.292Z,74.80
2019-04-28T18:38:35.130Z,74.80
2019-04-28T18:41:05.432Z,75.10
2019-04-28T18:43:47.684Z,75.20
2019-04-28T18:46:18.200Z,75.20
2019-04-28T18:48:46.708Z,75.30
2019-04-28T18:51:15.105Z,75.30
2019-04-28T18:56:13.165Z,75.70
2019-04-28T18:58:41.580Z,75.60
2019-04-28T19:01:20.847Z,75.70
2019-04-28T19:03:49.251Z,75.90
2019-04-28T19:06:17.655Z,76.10
2019-04-28T19:08:59.447Z,76.10
2019-04-28T19:11:38.366Z,76.20
2019-04-28T19:14:08.409Z,76.10
2019-04-28T19:16:53.209Z,76.20
2019-04-28T19:19:26.213Z,76.50
2019-04-28T19:21:55.734Z,76.60
2019-04-28T19:24:25.467Z,76.60
2019-04-28T19:26:53.940Z,76.90
2019-04-28T19:29:22.347Z,77.00
2019-04-28T19:31:50.746Z,77.20
2019-04-28T19:34:19.151Z,77.30
2019-04-28T19:36:47.549Z,77.20
2019-04-28T19:39:15.977Z,77.40
2019-04-28T19:41:44.380Z,77.40
2019-04-28T19:44:12.796Z,77.50
2019-04-28T19:49:28.601Z,77.60
2019-04-28T19:51:57.050Z,77.70
2019-04-28T19:54:27.104Z,77.80
2019-04-28T19:59:49.336Z,78.20
2019-04-28T20:02:17.737Z,78.20
2019-04-28T20:04:46.141Z,78.40
2019-04-28T20:07:14.605Z,78.50
2019-04-28T20:09:43.007Z,78.60
2019-04-28T20:12:11.409Z,78.80
2019-04-28T20:14:39.820Z,78.90
2019-04-28T20:17:08.210Z,78.90
2019-04-28T20:22:04.752Z,79.10
2019-04-28T20:27:02.999Z,79.40
2019-04-28T20:29:31.377Z,79.50
2019-04-28T20:31:59.836Z,79.50
2019-04-28T20:34:28.274Z,79.40
2019-04-28T20:36:58.300Z,79.40
2019-04-28T20:39:28.332Z,79.50
2019-04-28T20:41:58.377Z,79.50
2019-04-28T20:44:26.768Z,79.50
2019-04-28T20:49:42.585Z,79.40
2019-04-28T20:52:10.997Z,79.50
2019-04-28T20:54:39.390Z,79.70
2019-04-28T20:57:07.784Z,79.60
2019-04-28T20:59:36.182Z,79.60
2019-04-28T21:02:04.592Z,79.60
2019-04-28T21:04:33.027Z,79.60
2019-04-28T21:07:01.425Z,79.60
2019-04-28T21:11:57.917Z,79.80
2019-04-28T21:14:26.308Z,79.80
2019-04-28T21:16:54.712Z,79.90
2019-04-28T21:19:23.105Z,79.90
2019-04-28T21:21:51.512Z,80.00
2019-04-28T21:24:19.924Z,80.10
2019-04-28T21:26:48.323Z,80.10
2019-04-28T21:31:44.805Z,80.00
2019-04-28T21:36:41.350Z,80.10
2019-04-28T21:39:09.752Z,80.10
2019-04-28T21:41:38.227Z,80.10
2019-04-28T21:46:49.853Z,80.20
2019-04-28T21:49:22.845Z,80.30
2019-04-28T21:51:51.259Z,80.10
2019-04-28T21:54:19.653Z,80.30
2019-04-28T21:56:48.057Z,80.20
2019-04-28T21:59:16.447Z,80.50
2019-04-28T22:01:44.924Z,80.60
2019-04-28T22:04:13.325Z,80.50
2019-04-28T22:06:41.738Z,80.50
2019-04-28T22:09:10.305Z,80.60
2019-04-28T22:14:06.865Z,80.60
2019-04-28T22:16:35.256Z,80.80
2019-04-28T22:21:31.739Z,80.90
2019-04-28T22:24:01.903Z,81.00
2019-04-28T22:26:43.427Z,81.00
2019-04-28T22:29:12.764Z,81.00
2019-04-28T22:31:41.501Z,81.00
2019-04-28T22:34:10.590Z,80.90
2019-04-28T22:36:39.016Z,81.00
2019-04-28T22:39:07.861Z,81.10
2019-04-28T22:41:36.630Z,81.10
2019-04-28T22:44:05.889Z,81.00
2019-04-28T22:46:34.292Z,81.00
2019-04-28T22:49:04.508Z,81.10
2019-04-28T22:51:33.936Z,81.00
2019-04-28T22:54:21.165Z,81.00
2019-04-28T22:59:23.597Z,81.30
2019-04-28T23:02:15.745Z,81.30
2019-04-28T23:04:45.860Z,81.40
2019-04-28T23:09:42.417Z,81.40
2019-04-28T23:12:11.285Z,81.40
2019-04-28T23:14:39.690Z,81.50
2019-04-28T23:17:09.792Z,81.30
2019-04-28T23:19:39.832Z,81.30
2019-04-28T23:22:19.070Z,81.30
2019-04-28T23:24:47.493Z,81.20
2019-04-28T23:29:43.956Z,81.50
2019-04-28T23:32:12.426Z,81.70
2019-04-28T23:34:40.825Z,81.60
2019-04-28T23:37:09.233Z,81.70
2019-04-28T23:39:37.629Z,81.60
2019-04-28T23:42:13.400Z,81.70
2019-04-28T23:44:41.808Z,81.90
2019-04-28T23:49:38.281Z,82.50
2019-04-28T23:52:08.313Z,82.80
2019-04-28T23:57:07.390Z,82.90
2019-04-28T23:59:36.126Z,83.00
